createdAt,value
2023-02-25T00:01:15.058Z,77.79
2023-02-25T00:03:16.776Z,78.06
2023-02-25T00:05:19.100Z,77.99
2023-02-25T00:07:20.944Z,78.45
2023-02-25T00:09:22.484Z,77.83
2023-02-25T00:11:25.579Z,78.30
2023-02-25T00:13:29.358Z,78.35
2023-02-25T00:15:31.036Z,78.32
2023-02-25T00:17:33.326Z,78.49
2023-02-25T00:19:34.959Z,78.20
2023-02-25T00:21:36.698Z,78.03
2023-02-25T00:23:38.305Z,78.58
2023-02-25T00:25:40.072Z,78.79
2023-02-25T00:27:41.627Z,78.81
2023-02-25T00:29:44.666Z,78.72
2023-02-25T00:31:46.437Z,78.65
2023-02-25T00:33:48.998Z,78.64
2023-02-25T00:35:50.720Z,79.00
2023-02-25T00:37:52.317Z,78.71
2023-02-25T00:39:53.934Z,79.00
2023-02-25T00:41:55.795Z,78.75
2023-02-25T00:43:59.166Z,78.54
2023-02-25T00:46:02.119Z,78.49
2023-02-25T00:48:03.820Z,78.80
2023-02-25T00:50:07.848Z,78.46
2023-02-25T00:52:09.564Z,78.67
2023-02-25T00:54:11.264Z,78.37
2023-02-25T00:56:14.636Z,78.45
2023-02-25T00:58:16.195Z,78.25
2023-02-25T01:00:18.947Z,79.13
2023-02-25T01:02:21.871Z,78.67
2023-02-25T01:04:23.801Z,78.72
2023-02-25T01:06:27.894Z,78.83
2023-02-25T01:08:29.901Z,78.38
2023-02-25T01:10:31.457Z,78.72
2023-02-25T01:12:33.167Z,78.89
2023-02-25T01:14:34.786Z,78.79
2023-02-25T01:16:37.297Z,78.76
2023-02-25T01:18:40.660Z,78.95
2023-02-25T01:20:42.228Z,79.16
2023-02-25T01:22:44.078Z,78.79
2023-02-25T01:24:45.929Z,79.16
2023-02-25T01:26:50.772Z,79.82
2023-02-25T01:28:52.593Z,79.57
2023-02-25T01:30:54.337Z,79.02
2023-02-25T01:32:56.088Z,79.65
2023-02-25T01:34:59.077Z,79.51
2023-02-25T01:37:00.943Z,80.02
2023-02-25T01:39:03.717Z,79.77
2023-02-25T01:41:05.407Z,79.81
2023-02-25T01:43:14.761Z,79.03
2023-02-25T01:45:32.590Z,79.32
2023-02-25T01:47:37.627Z,79.33
2023-02-25T01:49:45.096Z,79.23
2023-02-25T01:51:51.786Z,79.23
2023-02-25T01:53:55.997Z,79.54
2023-02-25T01:55:58.995Z,79.50
2023-02-25T01:58:10.247Z,79.15
2023-02-25T02:00:13.109Z,78.79
2023-02-25T02:02:19.245Z,79.18
2023-02-25T02:04:22.432Z,78.89
2023-02-25T02:06:27.452Z,79.05
2023-02-25T02:08:33.041Z,79.06
2023-02-25T02:10:34.811Z,78.61
2023-02-25T02:12:40.622Z,78.20
2023-02-25T02:14:43.225Z,78.48
2023-02-25T02:17:09.231Z,78.77
2023-02-25T02:19:27.333Z,79.09
2023-02-25T02:21:45.867Z,78.46
2023-02-25T02:24:20.605Z,78.00
2023-02-25T02:26:53.279Z,78.66
2023-02-25T02:29:34.315Z,77.98
2023-02-25T02:31:51.709Z,78.49
2023-02-25T02:34:04.197Z,78.39
2023-02-25T02:36:12.525Z,78.92
2023-02-25T02:38:23.856Z,78.34
2023-02-25T02:40:39.132Z,78.59
2023-02-25T02:42:51.754Z,79.05
2023-02-25T02:45:01.590Z,78.63
2023-02-25T02:47:09.755Z,78.74
2023-02-25T02:49:19.198Z,78.72
2023-02-25T02:51:26.603Z,78.91
2023-02-25T02:53:34.559Z,78.70
2023-02-25T02:55:39.957Z,78.89
2023-02-25T02:57:42.550Z,78.99
2023-02-25T02:59:50.132Z,79.24
2023-02-25T03:01:57.383Z,78.70
2023-02-25T03:04:04.661Z,79.11
2023-02-25T03:06:11.181Z,78.61
2023-02-25T03:08:17.698Z,78.64
2023-02-25T03:10:22.670Z,78.44
2023-02-25T03:12:24.681Z,78.16
2023-02-25T03:14:26.501Z,78.75
2023-02-25T03:16:35.264Z,78.58
2023-02-25T03:18:41.405Z,78.53
2023-02-25T03:20:49.143Z,78.20
2023-02-25T03:22:55.376Z,78.56
2023-02-25T03:25:03.987Z,78.60
2023-02-25T03:27:22.343Z,78.07
2023-02-25T03:29:28.125Z,78.86
2023-02-25T03:31:35.107Z,78.25
2023-02-25T03:33:42.712Z,78.14
2023-02-25T03:35:49.278Z,77.99
2023-02-25T03:37:54.392Z,77.82
2023-02-25T03:40:01.324Z,78.47
2023-02-25T03:42:04.786Z,78.49
2023-02-25T03:44:13.341Z,78.20
2023-02-25T03:46:17.400Z,77.94
2023-02-25T03:48:19.124Z,78.29
2023-02-25T03:50:23.816Z,78.26
2023-02-25T03:52:29.178Z,78.38
2023-02-25T03:54:30.719Z,78.13
2023-02-25T03:56:41.365Z,77.83
2023-02-25T03:58:43.621Z,78.01
2023-02-25T04:00:48.496Z,78.27
2023-02-25T04:02:51.246Z,78.67
2023-02-25T04:04:52.890Z,78.41
2023-02-25T04:06:54.489Z,78.47
2023-02-25T04:08:57.945Z,78.24
2023-02-25T04:10:59.832Z,78.76
2023-02-25T04:13:02.144Z,78.50
2023-02-25T04:15:04.548Z,78.16
2023-02-25T04:17:06.104Z,77.67
2023-02-25T04:19:07.625Z,77.64
2023-02-25T04:21:09.904Z,78.43
2023-02-25T04:23:13.994Z,77.95
2023-02-25T04:25:17.097Z,78.09
2023-02-25T04:27:19.147Z,77.77
2023-02-25T04:29:20.962Z,78.39
2023-02-25T04:31:24.979Z,77.85
2023-02-25T04:33:26.740Z,77.60
2023-02-25T04:35:28.518Z,78.20
2023-02-25T04:37:30.760Z,77.96
2023-02-25T04:39:32.852Z,77.97
2023-02-25T04:41:36.808Z,77.87
2023-02-25T04:43:38.600Z,77.71
2023-02-25T04:45:40.447Z,78.52
2023-02-25T04:47:42.358Z,77.89
2023-02-25T04:49:43.959Z,78.42
2023-02-25T04:51:48.085Z,78.04
2023-02-25T04:53:49.937Z,77.83
2023-02-25T04:55:51.765Z,78.34
2023-02-25T04:57:55.100Z,77.42
2023-02-25T04:59:56.689Z,77.25
2023-02-25T05:01:58.552Z,77.20
2023-02-25T05:04:00.543Z,77.17
2023-02-25T05:06:03.531Z,77.46
2023-02-25T05:08:05.160Z,77.54
2023-02-25T05:10:08.528Z,77.36
2023-02-25T05:12:10.169Z,77.53
2023-02-25T05:14:13.184Z,77.70
2023-02-25T05:16:16.775Z,77.36
2023-02-25T05:18:18.379Z,77.69
2023-02-25T05:20:20.031Z,77.22
2023-02-25T05:22:21.651Z,77.11
2023-02-25T05:24:23.183Z,77.42
2023-02-25T05:26:26.428Z,77.47
2023-02-25T05:28:28.134Z,77.12
2023-02-25T05:30:31.103Z,77.09
2023-02-25T05:32:33.213Z,77.30
2023-02-25T05:34:35.266Z,77.54
2023-02-25T05:36:36.901Z,77.42
2023-02-25T05:38:38.857Z,76.83
2023-02-25T05:40:41.945Z,77.60
2023-02-25T05:42:43.607Z,77.36
2023-02-25T05:44:45.497Z,77.27
2023-02-25T05:46:48.542Z,77.03
2023-02-25T05:48:50.524Z,76.98
2023-02-25T05:50:59.619Z,77.41
2023-02-25T05:53:01.368Z,76.97
2023-02-25T05:55:03.427Z,76.80
2023-02-25T05:57:05.775Z,76.83
2023-02-25T05:59:07.336Z,76.95
2023-02-25T06:01:10.439Z,77.08
2023-02-25T06:03:13.735Z,76.78
2023-02-25T06:05:15.469Z,77.15
2023-02-25T06:07:17.354Z,77.43
2023-02-25T06:09:20.696Z,77.46
2023-02-25T06:11:24.464Z,77.27
2023-02-25T06:13:26.794Z,77.76
2023-02-25T06:15:28.492Z,77.59
2023-02-25T06:17:30.160Z,76.83
2023-02-25T06:19:33.429Z,77.02
2023-02-25T06:21:36.465Z,76.89
2023-02-25T06:23:40.081Z,77.43
2023-02-25T06:25:41.644Z,77.38
2023-02-25T06:27:43.484Z,77.40
2023-02-25T06:29:47.933Z,76.89
2023-02-25T06:31:50.442Z,77.21
2023-02-25T06:33:53.088Z,77.24
2023-02-25T06:35:56.195Z,77.63
2023-02-25T06:37:59.541Z,77.88
2023-02-25T06:40:01.117Z,77.37
2023-02-25T06:42:02.841Z,77.34
2023-02-25T06:44:04.573Z,77.66
2023-02-25T06:46:07.699Z,77.24
2023-02-25T06:48:10.040Z,77.60
2023-02-25T06:50:11.941Z,77.95
2023-02-25T06:52:15.872Z,77.37
2023-02-25T06:54:18.343Z,77.84
2023-02-25T06:56:19.925Z,77.63
2023-02-25T06:58:21.947Z,78.01
2023-02-25T07:00:23.617Z,77.47
2023-02-25T07:02:25.283Z,77.81
2023-02-25T07:04:26.870Z,77.82
2023-02-25T07:06:28.545Z,77.59
2023-02-25T07:08:31.832Z,77.77
2023-02-25T07:10:33.931Z,78.33
2023-02-25T07:12:35.548Z,78.23
2023-02-25T07:14:37.474Z,78.40
2023-02-25T07:16:39.327Z,77.93
2023-02-25T07:18:41.726Z,78.48
2023-02-25T07:20:43.416Z,78.33
2023-02-25T07:22:45.261Z,77.72
2023-02-25T07:24:48.390Z,78.45
2023-02-25T07:26:50.516Z,78.07
2023-02-25T07:28:52.186Z,78.26
2023-02-25T07:30:54.125Z,77.45
2023-02-25T07:32:55.842Z,77.87
2023-02-25T07:34:57.459Z,78.14
2023-02-25T07:36:58.985Z,77.42
2023-02-25T07:39:01.781Z,78.04
2023-02-25T07:41:06.663Z,77.75
2023-02-25T07:43:08.537Z,78.47
2023-02-25T07:45:11.693Z,78.44
2023-02-25T07:47:13.804Z,78.31
2023-02-25T07:49:15.668Z,78.31
2023-02-25T07:51:21.301Z,78.45
2023-02-25T07:53:23.629Z,78.64
2023-02-25T07:55:25.612Z,78.79
2023-02-25T07:57:29.617Z,78.10
2023-02-25T07:59:31.750Z,78.71
2023-02-25T08:01:34.276Z,78.09
2023-02-25T08:03:36.113Z,77.99
2023-02-25T08:05:38.671Z,77.54
2023-02-25T08:07:40.204Z,77.58
2023-02-25T08:09:42.473Z,77.49
2023-02-25T08:11:44.442Z,77.25
2023-02-25T08:13:47.430Z,77.99
2023-02-25T08:15:49.165Z,78.08
2023-02-25T08:17:51.116Z,77.80
2023-02-25T08:19:52.723Z,77.32
2023-02-25T08:21:54.241Z,77.29
2023-02-25T08:23:55.867Z,77.33
2023-02-25T08:25:59.264Z,77.34
2023-02-25T08:28:01.482Z,76.85
2023-02-25T08:30:04.862Z,77.44
2023-02-25T08:32:07.036Z,76.88
2023-02-25T08:34:08.686Z,77.44
2023-02-25T08:36:12.203Z,77.41
2023-02-25T08:38:13.793Z,77.08
2023-02-25T08:40:15.325Z,77.27
2023-02-25T08:42:16.899Z,77.66
2023-02-25T08:44:20.050Z,77.69
2023-02-25T08:46:24.982Z,77.12
2023-02-25T08:48:26.650Z,77.79
2023-02-25T08:50:28.268Z,77.92
2023-02-25T08:52:30.038Z,77.80
2023-02-25T08:54:31.814Z,77.76
2023-02-25T08:56:33.527Z,77.58
2023-02-25T08:58:35.518Z,77.83
2023-02-25T09:00:37.104Z,77.73
2023-02-25T09:02:40.311Z,77.41
2023-02-25T09:04:42.005Z,77.37
2023-02-25T09:06:44.027Z,77.43
2023-02-25T09:08:45.880Z,77.43
2023-02-25T09:10:50.625Z,77.08
2023-02-25T09:12:52.591Z,77.41
2023-02-25T09:14:54.244Z,76.95
2023-02-25T09:16:57.769Z,77.07
2023-02-25T09:19:00.730Z,77.28
2023-02-25T09:21:02.234Z,76.76
2023-02-25T09:23:03.822Z,77.30
2023-02-25T09:25:06.457Z,77.15
2023-02-25T09:27:08.356Z,77.57
2023-02-25T09:29:10.442Z,77.19
2023-02-25T09:31:12.480Z,77.79
2023-02-25T09:33:14.648Z,77.92
2023-02-25T09:35:18.088Z,77.67
2023-02-25T09:37:19.705Z,77.44
2023-02-25T09:39:21.504Z,76.60
2023-02-25T09:41:31.890Z,76.53
2023-02-25T09:43:40.890Z,76.83
2023-02-25T09:45:42.896Z,76.52
2023-02-25T09:47:50.398Z,76.63
2023-02-25T09:49:58.015Z,76.41
2023-02-25T09:52:06.054Z,75.97
2023-02-25T09:54:18.844Z,75.86
2023-02-25T09:56:24.368Z,76.05
2023-02-25T09:58:31.746Z,76.51
2023-02-25T10:00:40.221Z,76.70
2023-02-25T10:02:49.823Z,76.73
2023-02-25T10:05:06.926Z,77.36
2023-02-25T10:07:19.831Z,76.86
2023-02-25T10:09:30.544Z,76.04
2023-02-25T10:11:46.524Z,75.15
2023-02-25T10:13:56.456Z,75.34
2023-02-25T10:16:06.621Z,74.65
2023-02-25T10:18:26.912Z,75.43
2023-02-25T10:20:46.622Z,74.91
2023-02-25T10:22:59.201Z,74.17
2023-02-25T10:25:09.597Z,73.89
2023-02-25T10:27:20.542Z,73.25
2023-02-25T10:29:27.998Z,72.46
2023-02-25T10:31:30.897Z,71.80
2023-02-25T10:33:36.340Z,71.60
2023-02-25T10:35:40.632Z,71.45
2023-02-25T10:37:42.596Z,72.34
2023-02-25T10:39:46.148Z,72.62
2023-02-25T10:41:47.844Z,72.30
2023-02-25T10:43:51.157Z,72.74
2023-02-25T10:46:00.460Z,73.01
2023-02-25T10:48:07.257Z,72.94
2023-02-25T10:50:42.988Z,73.30
2023-02-25T10:53:02.512Z,72.98
2023-02-25T10:55:26.938Z,73.40
2023-02-25T10:57:40.366Z,72.88
2023-02-25T10:59:42.680Z,72.01
2023-02-25T11:01:44.400Z,71.27
2023-02-25T11:03:54.037Z,72.07
2023-02-25T11:06:09.336Z,72.29
2023-02-25T11:08:27.752Z,71.97
2023-02-25T11:10:30.924Z,71.71
2023-02-25T11:12:41.503Z,71.62
2023-02-25T11:14:43.226Z,71.45
2023-02-25T11:16:46.643Z,71.52
2023-02-25T11:18:53.099Z,71.61
2023-02-25T11:20:58.228Z,71.98
2023-02-25T11:23:00.410Z,71.50
2023-02-25T11:25:07.161Z,72.12
2023-02-25T11:27:30.625Z,72.44
2023-02-25T11:29:36.756Z,72.01
2023-02-25T11:31:41.015Z,71.92
2023-02-25T11:33:45.526Z,72.04
2023-02-25T11:35:55.866Z,72.98
2023-02-25T11:37:58.787Z,72.92
2023-02-25T11:40:00.669Z,72.19
2023-02-25T11:42:22.067Z,72.75
2023-02-25T11:44:27.303Z,71.47
2023-02-25T11:46:30.456Z,72.29
2023-02-25T11:48:45.825Z,72.33
2023-02-25T11:50:56.122Z,71.55
2023-02-25T11:53:08.978Z,71.94
2023-02-25T11:55:20.615Z,71.60
2023-02-25T11:57:32.353Z,71.81
2023-02-25T11:59:37.903Z,71.04
2023-02-25T12:01:57.484Z,72.06
2023-02-25T12:04:36.033Z,71.91
2023-02-25T12:06:55.775Z,71.96
2023-02-25T12:09:34.068Z,72.68
2023-02-25T12:12:14.358Z,72.31
2023-02-25T12:14:53.877Z,71.54
2023-02-25T12:17:14.376Z,71.62
2023-02-25T12:19:50.031Z,71.71
2023-02-25T12:22:13.783Z,72.14
2023-02-25T12:24:48.306Z,72.58
2023-02-25T12:27:15.374Z,72.05
2023-02-25T12:29:36.011Z,72.06
2023-02-25T12:32:01.537Z,71.77
2023-02-25T12:34:26.836Z,71.74
2023-02-25T12:36:56.471Z,71.42
2023-02-25T12:39:23.103Z,71.26
2023-02-25T12:41:38.195Z,71.19
2023-02-25T12:43:48.566Z,71.50
2023-02-25T12:46:12.191Z,71.72
2023-02-25T12:48:44.001Z,71.29
2023-02-25T12:51:05.683Z,72.30
2023-02-25T12:53:37.593Z,71.99
2023-02-25T12:56:02.965Z,72.60
2023-02-25T12:58:24.717Z,71.93
2023-02-25T13:00:56.971Z,71.44
2023-02-25T13:03:24.478Z,71.88
2023-02-25T13:05:54.494Z,71.57
2023-02-25T13:08:15.936Z,71.88
2023-02-25T13:10:46.330Z,72.39
2023-02-25T13:13:03.423Z,72.04
2023-02-25T13:15:12.550Z,72.63
2023-02-25T13:17:56.790Z,72.14
2023-02-25T13:20:24.775Z,72.10
2023-02-25T13:22:44.412Z,72.23
2023-02-25T13:24:52.993Z,70.63
2023-02-25T13:27:26.826Z,71.31
2023-02-25T13:29:57.617Z,71.71
2023-02-25T13:32:18.541Z,71.73
2023-02-25T13:34:34.961Z,70.14
2023-02-25T13:36:54.290Z,70.51
2023-02-25T13:39:19.509Z,69.76
2023-02-25T13:41:50.093Z,70.19
2023-02-25T13:44:08.821Z,71.09
2023-02-25T13:46:27.503Z,69.76
2023-02-25T13:48:58.873Z,70.61
2023-02-25T13:51:16.900Z,70.13
2023-02-25T13:53:36.910Z,69.37
2023-02-25T13:56:02.324Z,69.27
2023-02-25T13:58:25.604Z,69.49
2023-02-25T14:00:56.374Z,69.59
2023-02-25T14:03:15.983Z,69.15
2023-02-25T14:05:31.566Z,69.20
2023-02-25T14:07:47.191Z,69.52
2023-02-25T14:09:58.899Z,69.07
2023-02-25T14:12:12.919Z,69.10
2023-02-25T14:14:36.475Z,69.88
2023-02-25T14:16:53.366Z,69.92
2023-02-25T14:19:17.742Z,70.11
2023-02-25T14:22:12.124Z,69.48
2023-02-25T14:24:23.501Z,69.62
2023-02-25T14:26:37.937Z,69.87
2023-02-25T14:28:48.354Z,69.58
2023-02-25T14:31:06.756Z,68.55
2023-02-25T14:33:30.312Z,68.71
2023-02-25T14:35:46.684Z,68.12
2023-02-25T14:38:03.186Z,68.53
2023-02-25T14:40:23.783Z,68.87
2023-02-25T14:42:41.539Z,68.26
2023-02-25T14:44:50.324Z,66.80
2023-02-25T14:46:59.423Z,67.75
2023-02-25T14:49:07.777Z,67.78
2023-02-25T14:51:34.089Z,67.67
2023-02-25T14:53:50.718Z,67.63
2023-02-25T14:56:33.819Z,67.12
2023-02-25T14:59:00.565Z,67.44
2023-02-25T15:01:17.641Z,66.78
2023-02-25T15:03:42.982Z,65.82
2023-02-25T15:06:00.671Z,66.94
2023-02-25T15:08:27.245Z,67.15
2023-02-25T15:10:56.165Z,66.80
2023-02-25T15:13:17.196Z,67.33
2023-02-25T15:15:38.303Z,67.87
2023-02-25T15:18:11.727Z,68.32
2023-02-25T15:20:31.844Z,68.85
2023-02-25T15:22:33.899Z,68.71
2023-02-25T15:24:38.559Z,67.72
2023-02-25T15:26:44.356Z,67.69
2023-02-25T15:28:46.429Z,67.87
2023-02-25T15:31:09.323Z,69.08
2023-02-25T15:33:23.701Z,68.23
2023-02-25T15:35:56.287Z,68.53
2023-02-25T15:38:08.465Z,68.92
2023-02-25T15:40:42.415Z,68.61
2023-02-25T15:42:49.682Z,68.76
2023-02-25T15:44:51.703Z,68.44
2023-02-25T15:47:11.913Z,68.57
2023-02-25T15:49:22.195Z,68.36
2023-02-25T15:51:43.469Z,68.67
2023-02-25T15:53:46.456Z,68.48
2023-02-25T15:55:50.071Z,68.08
2023-02-25T15:57:51.604Z,68.24
2023-02-25T15:59:55.296Z,68.80
2023-02-25T16:01:56.979Z,68.35
2023-02-25T16:03:58.843Z,68.60
2023-02-25T16:06:04.107Z,67.94
2023-02-25T16:08:16.431Z,68.87
2023-02-25T16:10:24.054Z,68.07
2023-02-25T16:12:27.049Z,67.75
2023-02-25T16:14:31.607Z,68.21
2023-02-25T16:16:37.094Z,68.18
2023-02-25T16:18:41.545Z,67.48
2023-02-25T16:20:47.730Z,67.94
2023-02-25T16:22:55.611Z,68.46
2023-02-25T16:25:00.692Z,67.87
2023-02-25T16:27:06.913Z,68.21
2023-02-25T16:29:20.939Z,67.44
2023-02-25T16:31:28.589Z,67.24
2023-02-25T16:33:38.837Z,67.34
2023-02-25T16:35:55.422Z,66.92
2023-02-25T16:38:10.006Z,67.25
2023-02-25T16:40:17.428Z,67.47
2023-02-25T16:42:19.586Z,67.23
2023-02-25T16:44:27.115Z,66.87
2023-02-25T16:46:32.312Z,67.29
2023-02-25T16:48:38.106Z,67.22
2023-02-25T16:50:40.243Z,67.66
2023-02-25T16:52:48.443Z,67.73
2023-02-25T16:54:57.062Z,67.78
2023-02-25T16:57:02.457Z,67.72
2023-02-25T16:59:06.682Z,67.87
2023-02-25T17:01:22.917Z,68.41
2023-02-25T17:03:27.548Z,68.67
2023-02-25T17:05:32.536Z,68.24
2023-02-25T17:07:35.730Z,68.46
2023-02-25T17:09:43.549Z,69.23
2023-02-25T17:11:53.960Z,68.77
2023-02-25T17:14:01.941Z,68.74
2023-02-25T17:16:05.632Z,69.30
2023-02-25T17:18:11.709Z,69.19
2023-02-25T17:20:17.123Z,69.37
2023-02-25T17:22:20.937Z,68.78
2023-02-25T17:24:26.274Z,69.54
2023-02-25T17:26:30.003Z,68.53
2023-02-25T17:28:34.374Z,68.66
2023-02-25T17:30:41.229Z,69.39
2023-02-25T17:32:54.163Z,69.06
2023-02-25T17:35:00.416Z,68.83
2023-02-25T17:37:06.079Z,68.32
2023-02-25T17:39:11.610Z,68.04
2023-02-25T17:41:16.189Z,68.11
2023-02-25T17:43:20.859Z,68.04
2023-02-25T17:45:43.131Z,68.94
2023-02-25T17:47:44.748Z,69.32
2023-02-25T17:49:47.275Z,69.14
2023-02-25T17:51:54.185Z,69.12
2023-02-25T17:53:58.310Z,68.79
2023-02-25T17:56:10.724Z,69.42
2023-02-25T17:58:23.511Z,69.53
2023-02-25T18:00:28.240Z,68.43
2023-02-25T18:02:37.360Z,69.50
2023-02-25T18:04:41.258Z,69.76
2023-02-25T18:06:45.972Z,69.33
2023-02-25T18:08:52.670Z,69.11
2023-02-25T18:11:03.540Z,69.32
2023-02-25T18:13:05.526Z,69.06
2023-02-25T18:15:17.165Z,68.95
2023-02-25T18:17:24.982Z,68.79
2023-02-25T18:19:37.642Z,69.14
2023-02-25T18:21:41.079Z,68.40
2023-02-25T18:23:43.207Z,68.86
2023-02-25T18:25:48.287Z,68.48
2023-02-25T18:27:53.505Z,68.46
2023-02-25T18:29:58.798Z,68.21
2023-02-25T18:32:00.818Z,67.92
2023-02-25T18:34:02.830Z,67.33
2023-02-25T18:36:07.788Z,67.59
2023-02-25T18:38:16.095Z,67.53
2023-02-25T18:40:23.781Z,66.65
2023-02-25T18:42:25.607Z,66.04
2023-02-25T18:44:27.219Z,66.18
2023-02-25T18:46:28.886Z,66.61
2023-02-25T18:48:30.993Z,67.01
2023-02-25T18:50:33.223Z,66.00
2023-02-25T18:52:36.768Z,65.58
2023-02-25T18:54:38.323Z,65.43
2023-02-25T18:56:39.878Z,65.74
2023-02-25T18:58:41.472Z,65.71
2023-02-25T19:00:45.215Z,65.52
2023-02-25T19:02:50.659Z,65.59
2023-02-25T19:04:52.486Z,65.40
2023-02-25T19:06:54.185Z,65.09
2023-02-25T19:08:57.535Z,64.96
2023-02-25T19:10:59.192Z,65.06
2023-02-25T19:13:04.120Z,63.46
2023-02-25T19:15:14.778Z,64.75
2023-02-25T19:17:17.008Z,63.85
2023-02-25T19:19:18.919Z,64.29
2023-02-25T19:21:23.326Z,63.94
2023-02-25T19:23:25.937Z,63.24
2023-02-25T19:25:31.244Z,63.29
2023-02-25T19:27:33.251Z,62.64
2023-02-25T19:29:34.777Z,62.57
2023-02-25T19:31:36.448Z,62.33
2023-02-25T19:33:38.258Z,62.79
2023-02-25T19:35:42.456Z,62.81
2023-02-25T19:37:44.475Z,63.01
2023-02-25T19:39:46.474Z,62.84
2023-02-25T19:41:49.417Z,63.31
2023-02-25T19:43:50.937Z,62.76
2023-02-25T19:45:52.485Z,62.42
2023-02-25T19:47:55.339Z,63.08
2023-02-25T19:49:57.010Z,62.97
2023-02-25T19:51:58.956Z,62.89
2023-02-25T19:54:00.820Z,62.52
2023-02-25T19:56:02.591Z,62.28
2023-02-25T19:58:06.081Z,62.86
2023-02-25T20:00:11.250Z,61.72
2023-02-25T20:02:13.466Z,61.23
2023-02-25T20:04:15.156Z,62.26
2023-02-25T20:06:20.578Z,61.46
2023-02-25T20:08:22.634Z,62.42
2023-02-25T20:10:24.146Z,62.27
2023-02-25T20:12:26.053Z,61.37
2023-02-25T20:14:29.623Z,61.72
2023-02-25T20:16:33.763Z,62.04
2023-02-25T20:18:35.700Z,62.08
2023-02-25T20:20:40.852Z,62.67
2023-02-25T20:22:43.709Z,62.21
2023-02-25T20:24:46.912Z,62.62
2023-02-25T20:26:48.690Z,62.87
2023-02-25T20:28:52.650Z,63.08
2023-02-25T20:31:04.458Z,63.94
2023-02-25T20:33:06.090Z,62.78
2023-02-25T20:35:11.669Z,61.90
2023-02-25T20:37:17.397Z,62.75
2023-02-25T20:39:54.773Z,64.30
2023-02-25T20:41:57.064Z,61.89
2023-02-25T20:43:58.768Z,62.39
2023-02-25T20:46:01.163Z,62.74
2023-02-25T20:48:04.721Z,62.38
2023-02-25T20:50:08.630Z,62.01
2023-02-25T20:52:11.729Z,62.41
2023-02-25T20:54:15.423Z,62.78
2023-02-25T20:56:21.188Z,62.65
2023-02-25T20:58:22.770Z,62.29
2023-02-25T21:00:24.461Z,61.79
2023-02-25T21:02:25.976Z,61.73
2023-02-25T21:04:28.939Z,61.89
2023-02-25T21:06:30.539Z,61.98
2023-02-25T21:08:33.893Z,62.09
2023-02-25T21:10:35.442Z,61.40
2023-02-25T21:12:37.110Z,62.43
2023-02-25T21:14:38.800Z,62.29
2023-02-25T21:16:40.739Z,62.37
2023-02-25T21:18:43.441Z,62.07
2023-02-25T21:20:46.521Z,61.82
2023-02-25T21:22:48.646Z,61.46
2023-02-25T21:24:50.148Z,62.16
2023-02-25T21:26:51.703Z,61.41
2023-02-25T21:28:53.545Z,61.99
2023-02-25T21:31:00.850Z,62.29
2023-02-25T21:33:02.561Z,61.56
2023-02-25T21:35:04.621Z,61.82
2023-02-25T21:37:07.600Z,61.44
2023-02-25T21:39:10.597Z,61.52
2023-02-25T21:41:14.296Z,61.55
2023-02-25T21:43:16.233Z,60.69
2023-02-25T21:45:18.094Z,60.87
2023-02-25T21:47:19.743Z,60.37
2023-02-25T21:49:21.805Z,60.38
2023-02-25T21:51:25.086Z,60.39
2023-02-25T21:53:28.494Z,60.53
2023-02-25T21:55:30.045Z,60.84
2023-02-25T21:57:33.223Z,60.57
2023-02-25T21:59:34.835Z,60.61
2023-02-25T22:01:38.210Z,61.28
2023-02-25T22:03:40.049Z,60.79
2023-02-25T22:05:44.463Z,61.36
2023-02-25T22:07:46.113Z,60.50
2023-02-25T22:09:48.972Z,61.17
2023-02-25T22:11:50.826Z,60.72
2023-02-25T22:13:52.550Z,60.80
2023-02-25T22:15:54.080Z,60.85
2023-02-25T22:17:55.940Z,61.44
2023-02-25T22:19:57.504Z,61.04
2023-02-25T22:21:59.091Z,61.68
2023-02-25T22:24:02.532Z,62.03
2023-02-25T22:26:08.533Z,61.80
2023-02-25T22:28:10.383Z,62.48
2023-02-25T22:30:13.381Z,62.08
2023-02-25T22:32:15.319Z,62.30
2023-02-25T22:34:16.949Z,61.70
2023-02-25T22:36:19.684Z,61.71
2023-02-25T22:38:21.518Z,61.77
2023-02-25T22:40:23.912Z,61.78
2023-02-25T22:42:26.964Z,61.96
2023-02-25T22:44:28.577Z,61.79
2023-02-25T22:46:31.403Z,61.66
2023-02-25T22:48:33.944Z,62.53
2023-02-25T22:50:36.779Z,61.64
2023-02-25T22:52:38.543Z,61.47
2023-02-25T22:54:40.073Z,61.08
2023-02-25T22:56:42.622Z,62.03
2023-02-25T22:58:45.645Z,61.78
2023-02-25T23:00:47.267Z,62.40
2023-02-25T23:02:50.742Z,62.09
2023-02-25T23:04:52.340Z,62.07
2023-02-25T23:06:53.903Z,61.57
2023-02-25T23:08:56.805Z,61.76
2023-02-25T23:11:07.700Z,62.71
2023-02-25T23:13:09.294Z,61.85
2023-02-25T23:15:12.740Z,62.29
2023-02-25T23:17:14.334Z,61.80
2023-02-25T23:19:18.796Z,61.91
2023-02-25T23:21:20.778Z,61.97
2023-02-25T23:23:22.612Z,62.06
2023-02-25T23:25:24.158Z,62.41
2023-02-25T23:27:25.728Z,61.44
2023-02-25T23:29:27.361Z,61.57
2023-02-25T23:31:32.936Z,61.86
2023-02-25T23:33:34.573Z,61.57
2023-02-25T23:35:40.538Z,61.83
2023-02-25T23:37:42.092Z,62.48
2023-02-25T23:39:43.641Z,62.23
2023-02-25T23:41:45.239Z,62.32
2023-02-25T23:43:47.108Z,62.54
2023-02-25T23:45:48.734Z,62.38
2023-02-25T23:47:51.662Z,62.35
2023-02-25T23:49:53.717Z,62.04
2023-02-25T23:51:55.357Z,62.79
2023-02-25T23:54:00.495Z,61.88
2023-02-25T23:56:06.152Z,62.21
2023-02-25T23:58:07.763Z,61.73
